Alsbach, Germany

8:51 AM CEST on April 28, 2015 (GMT +0200)
Deizisau | | Change Station
CLOSE
Current Station
Personal Weather Station
Location: Deizisau, BADEN-WüRTTEMBERG
Elevation: 804 ft
Nearby Weather Stations

Elev 804 ft 48.71 °N, 9.38 °E | Updated 5 seconds ago

Light Rain
Light Rain
43.9 °F
Feels Like 40 °F
N
7.4
Wind Variable Wind from WNW
Gusts 9.8 mph

Today
High -- | Low -- °F
--% Chance of Precip.
Yesterday
High -- | Low -- °F
Precip. -- in
6:08 AM 8:32 PM
Waxing Gibbous, 71% visible
Pressure 29.86 in
Visibility 4.3 miles
Clouds Mostly Cloudy 800 ft
Windchill 40 °F
Dew Point 44 °F
Humidity 99%
Rainfall 0.17 in
Snow Depth Not available.
UV 1.0 out of 12
Pollen Not available.
Air Quality Not available.
Flu Activity Not available.
METAR EDDS 280620Z 30013KT 7000 -RA BKN008 06/05 Q1011 BECMG BKN010

More Conditions Fewer Conditions

Pressure 29.86 in
Visibility 4.3 miles
Clouds Mostly Cloudy 800 ft
Windchill 40 °F
Dew Point 44 °F
Humidity 99%
Rainfall 0.17 in
Snow Depth Not available.
UV 1.0 out of 12
Pollen Not available.
Air Quality Not available.
Flu Activity Not available.
METAR EDDS 280620Z 30013KT 7000 -RA BKN008 06/05 Q1011 BECMG BKN010

More Conditions Fewer Conditions

10-Day Weather Forecast

Almanac

Astronomy

Apr. 28, 2015 Rise Set
Actual Time
Civil Twilight
Nautical Twilight
Astronomical Twilight
Moon
Length of Visible Light
Length of Day
Tomorrow will be .
, % of the Moon is Illuminated

Today's Extremes

Country Highs Country Lows

Community

WunderPhotos

Upload Photos

1,817,591 photos uploaded!

WunderBlogs® & News

Nearby

Air Quality

  Air Quality AQ Index Pollutant
Not available.

Snow Depth

Station Depth Elevation

Earthquake Activity

City Distance Mag. Time & Date
Minimum magnitude displayed is 2.5.

Coastal Water Temperatures

Place Temperature

Stations

Nearby Weather Stations

Station Location Temp. Windchill Dew Point Humidity Wind Precip. Elev Updated Type